Time;durP1;ratioP1;P1;durP2;ratioP2;P2;SDS_P1;SDS_P2;PMS_P1;PMS_P2;Temp;Humidity;BMP_temperature;BMP_pressure;BME280_temperature;BME280_humidity;BME280_pressure;Samples;Min_cycle;Max_cycle;Signal;HPM_P1;HPM_P2
2022/10/27 00:00:38;;;;;;;17.50;10.43;;;;;;;11.22;89.01;99377.41;1718723;83;25658;-65
2022/10/27 00:03:05;;;;;;;22.75;12.53;;;;;;;11.23;89.59;99380.98;1718805;82;25815;-65
2022/10/27 00:05:31;;;;;;;19.92;10.25;;;;;;;11.24;89.18;99379.85;1718665;82;25602;-65
2022/10/27 00:07:57;;;;;;;22.20;13.35;;;;;;;11.24;89.67;99382.59;1718707;82;27571;-63
2022/10/27 00:10:23;;;;;;;20.65;13.00;;;;;;;11.25;88.91;99382.84;1718612;83;25692;-65
2022/10/27 00:12:49;;;;;;;19.45;12.85;;;;;;;11.25;88.92;99375.98;1719032;82;25788;-65
2022/10/27 00:15:16;;;;;;;15.25;8.48;;;;;;;11.24;89.29;99382.05;1719177;83;25658;-65
2022/10/27 00:17:42;;;;;;;19.52;12.20;;;;;;;11.20;90.38;99377.46;1718810;83;25478;-65
2022/10/27 00:20:09;;;;;;;20.27;11.80;;;;;;;11.16;89.21;99382.17;1719291;82;28167;-65
2022/10/27 00:22:36;;;;;;;18.92;12.43;;;;;;;11.11;89.85;99379.50;1719311;82;25454;-65
2022/10/27 00:25:04;;;;;;;19.05;12.58;;;;;;;11.09;89.23;99380.93;1718901;82;25674;-65
2022/10/27 00:27:30;;;;;;;19.27;12.50;;;;;;;11.06;89.13;99382.89;1719021;82;25620;-65
2022/10/27 00:29:57;;;;;;;19.55;11.97;;;;;;;11.02;89.20;99389.52;1718065;82;25663;-65
2022/10/27 00:32:23;;;;;;;18.92;12.00;;;;;;;10.99;89.14;99386.83;1716226;83;29654;-65
2022/10/27 00:34:49;;;;;;;21.17;13.05;;;;;;;10.98;88.89;99388.50;1717200;82;25614;-65
2022/10/27 00:37:16;;;;;;;21.85;13.20;;;;;;;10.97;88.97;99388.25;1716472;82;25619;-65
2022/10/27 00:39:42;;;;;;;18.82;11.78;;;;;;;10.96;88.65;99389.34;1716509;83;25723;-64
2022/10/27 00:42:13;;;;;;;22.05;13.30;;;;;;;10.95;89.57;99394.58;1716498;83;25669;-64
2022/10/27 00:44:41;;;;;;;;;;;;;;;10.96;88.80;99394.83;1719308;83;28405;-64
2022/10/27 00:47:27;;;;;;;22.93;13.35;;;;;;;10.96;88.55;99395.66;1716848;83;25679;-65
2022/10/27 00:50:13;;;;;;;23.83;13.75;;;;;;;10.95;88.49;99390.47;1716004;83;25457;-64
2022/10/27 00:52:55;;;;;;;24.65;14.30;;;;;;;10.95;88.35;99393.20;1717343;83;25739;-65
2022/10/27 00:55:32;;;;;;;25.65;14.80;;;;;;;10.92;88.60;99394.62;1717048;83;25966;-65
2022/10/27 00:58:03;;;;;;;24.10;13.88;;;;;;;10.88;88.74;99396.34;1716573;83;27446;-65
2022/10/27 01:00:30;;;;;;;24.75;14.05;;;;;;;10.86;88.78;99402.67;1716763;83;25860;-65
2022/10/27 01:02:57;;;;;;;23.80;14.78;;;;;;;10.85;88.39;99403.80;1716475;83;25631;-65
2022/10/27 01:05:27;;;;;;;23.77;14.38;;;;;;;10.82;88.40;99414.78;1715613;82;26437;-65
2022/10/27 01:07:58;;;;;;;23.30;14.40;;;;;;;10.79;88.38;99407.14;1716767;83;25600;-65
2022/10/27 01:10:25;;;;;;;23.22;14.65;;;;;;;10.75;88.27;99404.75;1716182;83;27377;-65
2022/10/27 01:12:53;;;;;;;24.20;14.73;;;;;;;10.69;88.42;99412.78;1716635;83;25497;-65
2022/10/27 01:15:24;;;;;;;24.00;14.87;;;;;;;10.64;88.60;99406.27;1716727;82;25641;-65
2022/10/27 01:18:14;;;;;;;21.95;13.68;;;;;;;10.61;88.39;99408.77;1715880;82;25668;-65
2022/10/27 01:21:01;;;;;;;23.30;14.00;;;;;;;10.57;88.47;99407.20;1716226;82;25742;-64
2022/10/27 01:23:50;;;;;;;20.40;12.75;;;;;;;10.58;88.52;99413.48;1690426;84;27485;-64
2022/10/27 01:26:42;;;;;;;21.12;13.00;;;;;;;10.57;88.43;99419.53;1687686;83;25734;-65
2022/10/27 01:29:36;;;;;;;20.20;12.85;;;;;;;10.55;88.60;99406.67;1689763;83;25879;-64
2022/10/27 01:32:34;;;;;;;21.15;11.78;;;;;;;10.52;89.19;99409.45;1690477;84;25784;-65
2022/10/27 01:35:19;;;;;;;22.17;13.20;;;;;;;10.52;89.43;99410.00;1691886;84;25488;-65
2022/10/27 01:38:03;;;;;;;21.42;12.68;;;;;;;10.54;88.89;99405.05;1693121;84;27638;-65
2022/10/27 01:40:43;;;;;;;21.50;12.82;;;;;;;10.54;89.32;99410.53;1691813;84;25641;-65
2022/10/27 01:43:18;;;;;;;22.73;14.00;;;;;;;10.51;89.34;99411.91;1692449;83;25658;-65
2022/10/27 01:45:45;;;;;;;23.87;14.68;;;;;;;10.51;89.37;99417.39;1690976;84;25832;-65
2022/10/27 01:48:13;;;;;;;24.02;14.15;;;;;;;10.52;89.08;99423.70;1692696;83;25714;-65
2022/10/27 01:50:41;;;;;;;22.07;13.38;;;;;;;10.52;89.33;99419.59;1692345;83;27643;-65
2022/10/27 01:53:12;;;;;;;20.55;13.13;;;;;;;10.54;89.07;99421.48;1691832;84;25740;-65
2022/10/27 01:55:59;;;;;;;20.60;12.75;;;;;;;10.54;89.26;99425.60;1691986;84;25693;-65
2022/10/27 01:58:51;;;;;;;24.20;13.13;;;;;;;10.53;89.36;99419.84;1691878;83;25797;-64
2022/10/27 02:02:01;;;;;;;23.00;13.48;;;;;;;10.53;89.35;99430.25;1713897;83;25653;-64
2022/10/27 02:04:57;;;;;;;18.82;12.63;;;;;;;10.48;89.16;99431.69;1718955;82;27381;-65
2022/10/27 02:07:53;;;;;;;20.30;13.20;;;;;;;10.41;88.99;99430.66;1718901;82;25914;-64
2022/10/27 02:10:27;;;;;;;20.52;12.50;;;;;;;10.36;89.10;99426.59;1719269;82;25629;-64
2022/10/27 02:12:56;;;;;;;20.43;12.82;;;;;;;10.38;89.28;99427.13;1718429;82;25831;-64
2022/10/27 02:15:39;;;;;;;21.10;12.88;;;;;;;10.38;89.85;99423.02;1718690;83;25484;-64
2022/10/27 02:18:15;;;;;;;17.23;11.50;;;;;;;10.40;90.14;99430.37;1719068;82;27495;-64
2022/10/27 02:20:45;;;;;;;19.37;12.93;;;;;;;10.44;89.88;99431.16;1718812;82;25864;-64
2022/10/27 02:23:18;;;;;;;20.08;12.70;;;;;;;10.46;89.60;99437.20;1719310;83;25449;-64
2022/10/27 02:26:20;;;;;;;19.95;12.70;;;;;;;10.46;89.63;99432.55;1718843;82;25765;-64
2022/10/27 02:29:15;;;;;;;20.65;11.60;;;;;;;10.48;89.32;99428.14;1719459;82;25666;-64
2022/10/27 02:31:46;;;;;;;20.80;12.70;;;;;;;10.54;89.49;99434.62;1714859;82;27479;-64
2022/10/27 02:34:13;;;;;;;18.25;11.97;;;;;;;10.57;89.53;99434.61;1729673;83;25612;-64
2022/10/27 02:36:39;;;;;;;20.32;12.47;;;;;;;10.60;89.53;99432.64;1722996;82;25485;-64
2022/10/27 02:39:05;;;;;;;25.25;13.90;;;;;;;10.60;89.64;99436.76;1718829;82;25747;-64
2022/10/27 02:41:31;;;;;;;23.83;13.40;;;;;;;10.60;89.69;99438.67;1719047;83;25663;-64
2022/10/27 02:43:57;;;;;;;23.30;13.78;;;;;;;10.61;89.66;99433.44;1719021;82;27542;-64
2022/10/27 02:46:23;;;;;;;23.27;14.85;;;;;;;10.59;89.64;99436.48;1719118;82;25870;-64
2022/10/27 02:48:50;;;;;;;21.17;14.25;;;;;;;10.58;89.54;99434.86;1718643;82;25729;-64
2022/10/27 02:51:16;;;;;;;21.75;13.38;;;;;;;10.55;89.72;99436.81;1718940;83;25787;-63
2022/10/27 02:53:42;;;;;;;21.48;13.70;;;;;;;10.57;90.32;99439.27;1719003;82;25411;-63
2022/10/27 02:56:08;;;;;;;21.90;13.88;;;;;;;10.59;90.54;99437.05;1719050;83;28269;-64
2022/10/27 02:58:35;;;;;;;19.62;12.88;;;;;;;10.64;90.78;99435.59;1718572;82;25641;-65
2022/10/27 03:01:01;;;;;;;19.82;13.70;;;;;;;10.69;90.49;99434.71;1718720;83;25696;-64
2022/10/27 03:03:27;;;;;;;22.17;13.35;;;;;;;10.75;90.73;99433.53;1718769;83;27877;-64
2022/10/27 03:05:53;;;;;;;21.33;13.62;;;;;;;10.78;90.75;99440.62;1718786;83;25428;-64
2022/10/27 03:08:20;;;;;;;22.37;13.80;;;;;;;10.84;90.51;99441.36;1719099;82;27549;-64
2022/10/27 03:10:46;;;;;;;22.58;13.83;;;;;;;10.88;90.63;99438.27;1718752;83;26124;-64
2022/10/27 03:13:12;;;;;;;20.45;13.43;;;;;;;10.90;90.31;99440.17;1719194;82;25743;-64
2022/10/27 03:15:38;;;;;;;20.23;14.33;;;;;;;10.96;90.51;99446.94;1719016;83;25786;-64
2022/10/27 03:18:04;;;;;;;19.45;13.13;;;;;;;10.99;90.52;99444.42;1719271;83;25420;-64
2022/10/27 03:20:31;;;;;;;22.07;13.45;;;;;;;11.03;90.58;99450.94;1718871;83;27499;-64
2022/10/27 03:22:57;;;;;;;17.70;12.63;;;;;;;11.08;90.09;99457.48;1718728;83;25909;-64
2022/10/27 03:25:23;;;;;;;19.77;12.70;;;;;;;11.08;90.60;99458.27;1719322;82;25629;-65
2022/10/27 03:27:50;;;;;;;22.70;13.05;;;;;;;11.08;90.25;99461.02;1719112;83;25767;-64
2022/10/27 03:30:17;;;;;;;20.97;12.80;;;;;;;11.09;90.29;99461.84;1719012;82;25640;-64
2022/10/27 03:32:50;;;;;;;21.35;12.73;;;;;;;11.12;90.34;99460.70;1719147;82;27368;-64
2022/10/27 03:35:18;;;;;;;19.80;12.78;;;;;;;11.13;90.36;99465.62;1718906;83;25712;-64
2022/10/27 03:37:45;;;;;;;20.55;12.53;;;;;;;11.15;90.23;99473.00;1719177;83;25429;-64
2022/10/27 03:40:12;;;;;;;18.12;12.30;;;;;;;11.18;90.36;99473.78;1718717;82;25781;-64
2022/10/27 03:42:42;;;;;;;27.17;12.73;;;;;;;11.20;90.06;99473.48;1719163;83;25674;-64
2022/10/27 03:45:10;;;;;;;18.98;11.63;;;;;;;11.22;90.28;99473.98;1718951;82;27205;-64
2022/10/27 03:47:37;;;;;;;17.20;10.78;;;;;;;11.25;90.41;99476.13;1718792;82;25444;-64
2022/10/27 03:50:05;;;;;;;22.20;12.60;;;;;;;11.29;90.41;99468.95;1719152;82;25595;-64
2022/10/27 03:52:32;;;;;;;18.48;11.55;;;;;;;11.32;90.43;99480.70;1719130;83;25684;-64
2022/10/27 03:55:04;;;;;;;19.30;11.63;;;;;;;11.34;90.39;99479.83;1719199;83;25642;-63
2022/10/27 03:57:41;;;;;;;17.92;10.93;;;;;;;11.37;90.44;99479.23;1718900;82;27579;-63
2022/10/27 04:00:18;;;;;;;18.65;12.25;;;;;;;11.41;90.90;99484.95;1718878;82;25630;-62
2022/10/27 04:02:45;;;;;;;18.87;12.37;;;;;;;11.43;90.32;99478.62;1718908;82;25448;-63
2022/10/27 04:05:11;;;;;;;20.08;12.00;;;;;;;11.45;90.43;99475.00;1719005;82;25688;-64
2022/10/27 04:07:37;;;;;;;21.27;12.75;;;;;;;11.51;90.36;99486.70;1719051;83;25669;-64
2022/10/27 04:10:05;;;;;;;22.67;13.48;;;;;;;11.53;90.48;99483.94;1719014;82;27801;-64
2022/10/27 04:12:31;;;;;;;25.02;13.30;;;;;;;11.52;90.36;99490.52;1718878;82;25587;-64
2022/10/27 04:14:57;;;;;;;48.78;25.90;;;;;;;11.50;90.89;99490.02;1719147;83;25570;-65
2022/10/27 04:17:24;;;;;;;232.30;109.85;;;;;;;11.45;90.78;99474.20;1719022;82;26467;-64
2022/10/27 04:19:50;;;;;;;36.17;23.77;;;;;;;11.43;90.68;99482.73;1719042;83;25675;-64
2022/10/27 04:22:16;;;;;;;84.85;55.92;;;;;;;11.42;90.91;99473.67;1718698;82;27400;-64
2022/10/27 04:24:42;;;;;;;393.30;113.40;;;;;;;11.43;90.83;99482.73;1718707;82;26077;-64
2022/10/27 04:27:09;;;;;;;186.88;49.25;;;;;;;11.44;90.60;99491.77;1718756;82;25655;-64
2022/10/27 04:29:35;;;;;;;121.20;35.65;;;;;;;11.43;90.46;99489.59;1718669;83;25821;-64
2022/10/27 04:32:01;;;;;;;233.25;59.33;;;;;;;11.44;90.23;99484.91;1714841;82;25688;-64
2022/10/27 04:34:28;;;;;;;127.12;37.55;;;;;;;11.44;90.26;99504.11;1713305;83;27426;-64
2022/10/27 04:36:54;;;;;;;144.55;41.40;;;;;;;11.41;89.95;99502.24;1713699;83;25468;-64
2022/10/27 04:39:22;;;;;;;182.10;48.75;;;;;;;11.43;89.89;99507.44;1706552;83;25448;-64
2022/10/27 04:41:48;;;;;;;119.45;35.23;;;;;;;11.44;89.74;99504.11;1706420;84;25696;-64
2022/10/27 04:44:14;;;;;;;77.45;26.93;;;;;;;11.42;89.64;99510.73;1706591;84;25607;-64
2022/10/27 04:46:41;;;;;;;111.40;34.27;;;;;;;11.40;89.66;99508.83;1706468;84;27476;-64
2022/10/27 04:49:07;;;;;;;162.97;48.13;;;;;;;11.39;89.46;99511.32;1706311;84;25603;-64
2022/10/27 04:51:34;;;;;;;122.28;38.15;;;;;;;11.35;89.22;99514.95;1706741;84;25412;-64
2022/10/27 04:54:00;;;;;;;110.42;35.80;;;;;;;11.29;89.25;99518.34;1706376;84;25765;-64
2022/10/27 04:56:27;;;;;;;95.00;32.23;;;;;;;11.23;89.41;99518.16;1706207;84;25651;-63
2022/10/27 04:58:54;;;;;;;77.82;27.02;;;;;;;11.17;89.35;99520.17;1706270;84;27469;-63
2022/10/27 05:01:21;;;;;;;98.30;33.28;;;;;;;11.11;89.45;99518.61;1706367;84;25850;-63
2022/10/27 05:03:47;;;;;;;124.30;38.02;;;;;;;11.05;89.36;99521.95;1706480;84;25606;-63
2022/10/27 05:06:14;;;;;;;99.22;32.42;;;;;;;11.00;89.46;99517.93;1706136;84;25656;-63
2022/10/27 05:08:40;;;;;;;97.27;31.05;;;;;;;10.98;89.49;99516.03;1706498;84;25659;-63
2022/10/27 05:11:07;;;;;;;86.15;30.17;;;;;;;10.95;89.31;99518.81;1706604;84;27504;-64
2022/10/27 05:13:33;;;;;;;82.25;29.00;;;;;;;10.93;89.44;99514.75;1705989;84;25687;-64
2022/10/27 05:16:01;;;;;;;85.57;31.35;;;;;;;10.90;89.31;99522.98;1706164;84;25674;-64
2022/10/27 05:18:28;;;;;;;177.00;53.13;;;;;;;10.87;89.31;99527.69;1706138;84;26849;-64
2022/10/27 05:20:56;;;;;;;115.08;37.58;;;;;;;10.86;89.34;99526.06;1706248;84;41665;-64
2022/10/27 05:23:22;;;;;;;97.50;34.00;;;;;;;10.83;89.53;99534.33;1706211;84;27402;-64
2022/10/27 05:25:54;;;;;;;44.55;19.35;;;;;;;10.83;89.55;99531.59;1706352;84;25456;-64
2022/10/27 05:28:21;;;;;;;82.40;29.55;;;;;;;10.81;89.56;99532.97;1706527;84;25463;-64
2022/10/27 05:30:48;;;;;;;39.53;17.92;;;;;;;10.80;89.62;99541.77;1706657;82;25719;-64
2022/10/27 05:33:14;;;;;;;53.38;21.50;;;;;;;10.81;89.64;99546.68;1716275;83;25449;-64
2022/10/27 05:35:44;;;;;;;68.22;25.65;;;;;;;10.79;89.51;99545.60;1716846;83;27605;-64
2022/10/27 05:38:10;;;;;;;56.75;25.30;;;;;;;10.79;89.78;99556.56;1716241;83;25702;-64
2022/10/27 05:40:37;;;;;;;56.30;24.00;;;;;;;10.82;89.77;99557.92;1715595;83;25468;-64
2022/10/27 05:43:04;;;;;;;62.73;26.07;;;;;;;10.84;89.84;99563.38;1716715;83;25733;-64
2022/10/27 05:45:30;;;;;;;56.48;24.02;;;;;;;10.84;89.80;99569.40;1716410;83;25677;-64
2022/10/27 05:48:04;;;;;;;37.63;19.07;;;;;;;10.83;89.75;99567.78;1716105;83;28450;-64
2022/10/27 05:50:31;;;;;;;54.73;24.63;;;;;;;10.83;90.06;99563.66;1715918;83;25661;-64
2022/10/27 05:52:58;;;;;;;45.43;22.55;;;;;;;10.84;90.21;99572.97;1716893;83;25456;-63
2022/10/27 05:55:25;;;;;;;42.15;19.35;;;;;;;10.86;90.41;99572.13;1716393;83;26537;-64
2022/10/27 05:57:59;;;;;;;44.50;21.55;;;;;;;10.88;90.36;99573.21;1716399;82;25502;-64
2022/10/27 06:00:32;;;;;;;39.25;19.67;;;;;;;10.94;90.77;99578.06;1716534;82;28445;-64
2022/10/27 06:03:01;;;;;;;31.73;15.75;;;;;;;10.99;90.68;99572.50;1716383;83;25467;-64
2022/10/27 06:05:29;;;;;;;40.15;21.23;;;;;;;11.04;90.67;99584.25;1716461;83;25619;-64
2022/10/27 06:07:56;;;;;;;34.80;17.90;;;;;;;11.09;90.74;99586.66;1716453;83;25828;-64
2022/10/27 06:10:23;;;;;;;39.40;19.73;;;;;;;11.14;90.60;99590.14;1717184;82;25535;-64
2022/10/27 06:12:50;;;;;;;32.67;18.02;;;;;;;11.20;90.67;99585.97;1717485;82;27472;-64
2022/10/27 06:15:17;;;;;;;33.18;17.92;;;;;;;11.23;90.65;99598.52;1716285;82;25756;-64
2022/10/27 06:17:43;;;;;;;33.15;17.90;;;;;;;11.28;90.59;99591.60;1716287;83;25511;-64
2022/10/27 06:20:10;;;;;;;33.08;17.30;;;;;;;11.33;90.69;99598.95;1716708;83;25762;-64
2022/10/27 06:22:37;;;;;;;34.25;19.10;;;;;;;11.40;90.62;99599.39;1716743;82;25456;-65
2022/10/27 06:25:03;;;;;;;37.85;19.98;;;;;;;11.44;90.69;99599.63;1716794;82;27627;-64
2022/10/27 06:27:31;;;;;;;31.97;17.92;;;;;;;11.50;90.82;99599.81;1716598;82;25450;-64
2022/10/27 06:29:57;;;;;;;30.30;17.17;;;;;;;11.54;90.64;99603.59;1716282;83;25672;-64
2022/10/27 06:32:23;;;;;;;30.90;17.60;;;;;;;11.56;90.87;99608.78;1728852;82;25849;-64
2022/10/27 06:34:52;;;;;;;32.90;17.77;;;;;;;11.59;90.79;99615.60;1729217;83;25667;-64
2022/10/27 06:37:22;;;;;;;32.70;17.50;;;;;;;11.61;90.98;99615.59;1729781;83;27549;-64
2022/10/27 06:39:48;;;;;;;35.05;19.10;;;;;;;11.61;90.88;99621.08;1729899;83;25693;-64
2022/10/27 06:42:15;;;;;;;39.10;19.98;;;;;;;11.61;90.78;99623.83;1729780;83;25669;-64
2022/10/27 06:44:41;;;;;;;38.92;19.27;;;;;;;11.61;90.77;99625.74;1729312;83;25752;-64
2022/10/27 06:47:08;;;;;;;38.30;19.80;;;;;;;11.66;91.02;99627.84;1729501;83;25496;-64
2022/10/27 06:49:34;;;;;;;27.93;15.68;;;;;;;11.76;91.03;99627.44;1729602;83;27422;-64
2022/10/27 06:52:00;;;;;;;38.65;20.40;;;;;;;11.78;90.78;99641.13;1729765;83;25713;-64
2022/10/27 06:54:27;;;;;;;41.63;21.15;;;;;;;11.83;90.75;99646.30;1729784;83;25653;-64
2022/10/27 06:56:53;;;;;;;40.35;20.40;;;;;;;11.87;90.33;99639.09;1729314;83;25791;-65
2022/10/27 06:59:19;;;;;;;37.70;19.42;;;;;;;11.96;90.45;99643.34;1729547;83;25653;-64
2022/10/27 07:01:45;;;;;;;40.08;21.55;;;;;;;12.01;90.09;99641.90;1729612;83;27471;-64
2022/10/27 07:04:12;;;;;;;35.55;18.32;;;;;;;12.06;89.85;99648.67;1729307;83;25997;-64
2022/10/27 07:06:38;;;;;;;35.20;20.15;;;;;;;12.04;89.62;99655.84;1729332;83;25610;-64
2022/10/27 07:09:05;;;;;;;43.13;21.57;;;;;;;12.08;89.76;99660.77;1727844;82;25748;-64
2022/10/27 07:11:31;;;;;;;37.25;19.23;;;;;;;12.11;90.06;99658.24;1729331;83;25649;-64
2022/10/27 07:13:57;;;;;;;36.40;19.67;;;;;;;12.11;89.82;99657.42;1729698;83;27457;-64
2022/10/27 07:16:23;;;;;;;36.60;20.10;;;;;;;12.10;89.84;99662.67;1729409;83;25589;-64
2022/10/27 07:18:50;;;;;;;39.15;20.25;;;;;;;12.05;89.60;99660.78;1729488;83;25620;-64
2022/10/27 07:21:18;;;;;;;39.08;20.05;;;;;;;12.04;89.53;99660.53;1729522;83;26454;-64
2022/10/27 07:23:44;;;;;;;35.92;19.02;;;;;;;12.10;89.82;99661.30;1729405;83;25479;-64
2022/10/27 07:26:11;;;;;;;29.65;17.90;;;;;;;12.16;89.72;99664.22;1729430;83;27620;-64
2022/10/27 07:28:37;;;;;;;36.17;19.60;;;;;;;12.15;89.28;99670.84;1729220;83;25707;-64
2022/10/27 07:31:03;;;;;;;36.10;19.60;;;;;;;12.16;89.42;99669.16;1729373;83;25455;-64
2022/10/27 07:33:30;;;;;;;35.05;19.23;;;;;;;12.20;89.44;99683.10;1724712;82;26121;-63
2022/10/27 07:35:56;;;;;;;41.35;21.07;;;;;;;12.23;89.38;99677.02;1724237;83;25678;-64
2022/10/27 07:38:22;;;;;;;42.17;22.42;;;;;;;12.31;89.69;99682.39;1724206;83;27609;-64
2022/10/27 07:40:49;;;;;;;34.38;19.40;;;;;;;12.43;89.78;99690.16;1724435;83;25641;-64
2022/10/27 07:43:15;;;;;;;32.93;19.60;;;;;;;12.50;89.14;99687.86;1724606;83;25431;-64
2022/10/27 07:45:42;;;;;;;34.15;17.65;;;;;;;12.51;88.91;99692.77;1724181;83;25884;-64
2022/10/27 07:48:14;;;;;;;33.25;18.32;;;;;;;12.55;88.80;99693.25;1724030;83;25689;-64
2022/10/27 07:50:42;;;;;;;38.90;21.02;;;;;;;12.57;88.73;99695.70;1724584;83;28141;-64
2022/10/27 07:53:09;;;;;;;45.30;22.50;;;;;;;12.61;88.98;99695.34;1724687;83;25555;-65
2022/10/27 07:55:36;;;;;;;42.55;22.07;;;;;;;12.75;89.18;99695.95;1724424;83;25658;-64
2022/10/27 07:58:13;;;;;;;33.70;18.48;;;;;;;12.83;88.87;99693.03;1724064;83;25742;-64
2022/10/27 08:00:46;;;;;;;37.33;19.45;;;;;;;12.80;88.12;99696.67;1724398;83;25496;-65
2022/10/27 08:03:24;;;;;;;38.13;20.50;;;;;;;12.89;88.56;99695.95;1724423;83;27368;-64
2022/10/27 08:05:51;;;;;;;36.00;18.32;;;;;;;12.96;88.42;99694.19;1724098;82;25914;-64
2022/10/27 08:08:19;;;;;;;35.17;18.25;;;;;;;13.09;88.12;99706.31;1724138;83;25633;-65
2022/10/27 08:10:48;;;;;;;35.68;19.30;;;;;;;13.13;87.54;99712.28;1724153;83;27897;-65
2022/10/27 08:13:15;;;;;;;39.23;20.52;;;;;;;13.24;87.86;99718.41;1724500;83;25583;-64
2022/10/27 08:15:42;;;;;;;37.28;20.23;;;;;;;13.36;87.86;99713.76;1724163;83;27452;-64
2022/10/27 08:18:10;;;;;;;37.95;18.52;;;;;;;13.55;87.88;99715.62;1724051;83;25499;-64
2022/10/27 08:20:41;;;;;;;34.27;18.65;;;;;;;13.60;86.89;99714.70;1724388;83;25620;-65
2022/10/27 08:23:15;;;;;;;;;;;;;;;13.68;86.69;99716.16;1726088;83;27830;-64
2022/10/27 08:25:42;;;;;;;37.50;18.07;;;;;;;13.77;86.42;99719.02;1724256;83;25617;-65
2022/10/27 08:28:11;;;;;;;40.67;19.52;;;;;;;13.92;86.62;99712.90;1724150;83;26679;-65
2022/10/27 08:30:37;;;;;;;36.10;16.32;;;;;;;13.92;86.62;99712.90;1724373;83;25440;-64
2022/10/27 08:33:05;;;;;;;38.13;17.55;;;;;;;14.04;85.11;99719.23;1724247;81;25891;-64
2022/10/27 08:35:33;;;;;;;37.65;19.35;;;;;;;13.99;84.29;99713.28;1724032;83;25803;-64
2022/10/27 08:38:06;;;;;;;39.33;20.30;;;;;;;13.99;85.38;99716.62;1724479;83;25636;-64
2022/10/27 08:40:41;;;;;;;40.00;20.48;;;;;;;14.12;84.89;99728.71;1724599;83;27482;-64
2022/10/27 08:43:41;;;;;;;42.40;21.35;;;;;;;14.19;84.99;99722.20;1690266;84;25717;-64
2022/10/27 08:46:39;;;;;;;42.60;20.00;;;;;;;14.27;84.67;99723.39;1661033;84;25885;-63
2022/10/27 08:49:11;;;;;;;36.58;18.27;;;;;;;14.40;84.28;99734.13;1656034;86;26105;-64
2022/10/27 08:51:39;;;;;;;41.05;21.12;;;;;;;14.43;83.23;99733.50;1654356;85;25761;-64
2022/10/27 08:54:06;;;;;;;42.48;20.85;;;;;;;14.49;83.77;99736.39;1656371;85;27485;-64
2022/10/27 08:56:38;;;;;;;46.20;22.70;;;;;;;14.50;83.71;99729.73;1662085;85;25849;-64
2022/10/27 08:59:07;;;;;;;45.08;21.82;;;;;;;14.57;83.73;99743.10;1666941;86;25932;-64
2022/10/27 09:01:51;;;;;;;45.73;22.82;;;;;;;14.66;83.08;99734.32;1642526;85;26554;-64
2022/10/27 09:04:35;;;;;;;45.48;22.65;;;;;;;14.73;81.51;99726.13;1635567;87;25831;-64
2022/10/27 09:07:20;;;;;;;38.02;19.15;;;;;;;14.73;81.51;99726.13;1644465;87;28013;-65
2022/10/27 09:10:00;;;;;;;41.63;20.30;;;;;;;14.96;82.49;99730.27;1605434;87;25833;-64
2022/10/27 09:13:23;;;;;;;38.08;19.80;;;;;;;15.26;82.14;99732.75;1603633;89;25752;-64
2022/10/27 09:15:52;;;;;;;38.30;20.82;;;;;;;15.48;81.20;99731.61;1577555;90;25879;-64
2022/10/27 09:18:32;;;;;;;40.33;20.75;;;;;;;15.96;81.62;99720.81;1570166;91;25854;-64
2022/10/27 09:21:01;;;;;;;41.18;21.70;;;;;;;16.53;80.06;99733.67;1596963;88;27648;-64
2022/10/27 09:23:42;;;;;;;38.38;20.52;;;;;;;16.99;78.23;99725.52;1599423;89;25831;-64
2022/10/27 09:26:12;;;;;;;35.83;19.87;;;;;;;17.28;76.22;99730.89;1577692;89;25885;-64
2022/10/27 09:28:50;;;;;;;37.97;20.63;;;;;;;17.57;75.96;99734.83;1601730;87;25873;-65
2022/10/27 09:31:42;;;;;;;36.28;20.95;;;;;;;18.01;75.41;99737.88;1607949;87;25823;-64
2022/10/27 09:34:38;;;;;;;42.60;21.77;;;;;;;18.52;75.35;99739.77;1635224;86;27449;-64
2022/10/27 09:37:16;;;;;;;37.58;20.92;;;;;;;19.06;73.56;99737.47;1635771;87;27197;-64
2022/10/27 09:39:49;;;;;;;37.55;20.88;;;;;;;19.59;70.74;99737.41;1636169;87;25728;-64
2022/10/27 09:42:17;;;;;;;32.80;20.30;;;;;;;20.05;69.53;99735.05;1636167;87;26567;-65
2022/10/27 09:44:57;;;;;;;35.20;20.90;;;;;;;20.44;68.86;99740.15;1635767;87;25834;-64
2022/10/27 09:47:28;;;;;;;35.95;21.27;;;;;;;20.80;68.79;99734.73;1671104;82;27430;-63
2022/10/27 09:49:56;;;;;;;35.05;21.07;;;;;;;21.21;65.81;99740.18;1623936;87;25755;-63
2022/10/27 09:52:36;;;;;;;28.75;18.77;;;;;;;21.33;66.90;99742.09;1697618;84;25727;-62
2022/10/27 09:55:04;;;;;;;33.78;21.23;;;;;;;21.87;63.24;99743.13;1703562;83;25842;-62
2022/10/27 09:57:37;;;;;;;32.15;20.50;;;;;;;22.11;62.23;99736.50;1702951;84;25772;-63
2022/10/27 10:00:20;;;;;;;28.45;19.42;;;;;;;22.46;63.50;99740.97;1704441;84;28303;-63
2022/10/27 10:03:03;;;;;;;30.82;18.98;;;;;;;22.89;61.93;99750.22;1704932;84;26059;-63
2022/10/27 10:05:37;;;;;;;32.93;21.10;;;;;;;23.44;62.29;99746.95;1705314;84;25675;-62
2022/10/27 10:08:26;;;;;;;34.65;22.42;;;;;;;23.87;56.43;99738.98;1704474;83;25744;-63
2022/10/27 10:11:00;;;;;;;32.85;20.48;;;;;;;23.73;58.31;99736.78;1705313;84;25711;-63
2022/10/27 10:13:29;;;;;;;32.70;22.45;;;;;;;23.97;57.44;99734.13;1704783;84;27613;-63
2022/10/27 10:16:15;;;;;;;34.27;22.00;;;;;;;24.46;57.68;99731.55;1705400;84;25739;-63
2022/10/27 10:19:04;;;;;;;31.73;22.07;;;;;;;24.97;57.57;99734.09;1705330;84;25712;-63
2022/10/27 10:21:55;;;;;;;31.68;21.52;;;;;;;25.32;55.13;99738.41;1705116;84;25745;-63
2022/10/27 10:24:25;;;;;;;30.27;21.07;;;;;;;25.19;53.59;99735.89;1705401;84;25726;-64
2022/10/27 10:26:57;;;;;;;31.68;21.15;;;;;;;25.51;55.37;99740.16;1704866;84;27533;-63
2022/10/27 10:29:33;;;;;;;22.30;15.83;;;;;;;25.63;54.03;99734.05;1705219;84;26431;-63
2022/10/27 10:32:11;;;;;;;29.25;18.62;;;;;;;25.99;52.67;99725.81;1705435;84;25704;-63
2022/10/27 10:34:38;;;;;;;23.38;17.07;;;;;;;26.61;52.55;99730.89;1704121;81;25723;-63
2022/10/27 10:37:33;;;;;;;25.43;17.57;;;;;;;26.99;50.23;99731.98;1733024;82;25657;-61
2022/10/27 10:40:15;;;;;;;27.52;18.00;;;;;;;27.31;50.48;99732.59;1732855;82;27329;-61
2022/10/27 10:42:47;;;;;;;21.93;14.43;;;;;;;27.87;49.71;99732.73;1731936;82;25715;-61
2022/10/27 10:45:26;;;;;;;17.25;12.85;;;;;;;28.16;46.29;99722.18;1733309;82;26176;-61
2022/10/27 10:48:06;;;;;;;13.30;9.48;;;;;;;27.98;44.74;99725.66;1733508;82;25777;-61
2022/10/27 10:50:44;;;;;;;11.95;9.33;;;;;;;27.87;46.43;99729.33;1731086;82;25811;-61
2022/10/27 10:53:25;;;;;;;15.88;10.60;;;;;;;27.74;45.33;99730.34;1733998;82;27417;-61
2022/10/27 10:55:54;;;;;;;16.42;9.20;;;;;;;27.76;44.74;99724.31;1733836;82;25935;-61
2022/10/27 10:58:24;;;;;;;13.78;9.18;;;;;;;27.90;44.12;99717.25;1733986;82;25422;-61
2022/10/27 11:00:59;;;;;;;13.28;8.80;;;;;;;28.11;44.18;99716.14;1733845;82;27882;-61
2022/10/27 11:03:36;;;;;;;11.00;7.40;;;;;;;28.20;43.11;99711.50;1732448;82;25507;-61
2022/10/27 11:06:06;;;;;;;10.72;7.65;;;;;;;28.09;41.04;99713.73;1733965;82;27377;-61
2022/10/27 11:08:35;;;;;;;;;;;;;;;28.41;43.03;99713.44;1736777;82;25478;-60
2022/10/27 11:11:06;;;;;;;6.33;4.70;;;;;;;28.94;42.64;99707.88;1732252;82;25617;-61
2022/10/27 11:13:37;;;;;;;5.75;3.98;;;;;;;29.12;38.36;99705.50;1734353;82;25731;-61
2022/10/27 11:16:08;;;;;;;6.60;4.40;;;;;;;29.07;40.30;99705.34;1713294;82;25439;-61
2022/10/27 11:18:51;;;;;;;11.38;5.22;;;;;;;29.34;39.97;99712.37;1734121;82;28362;-61
2022/10/27 11:21:47;;;;;;;6.87;4.97;;;;;;;29.46;40.15;99709.63;1732532;82;25609;-61
2022/10/27 11:24:19;;;;;;;7.42;5.08;;;;;;;29.14;39.50;99712.95;1733516;82;25499;-61
2022/10/27 11:27:17;;;;;;;7.95;5.00;;;;;;;29.04;39.28;99711.21;1733873;82;25753;-61
2022/10/27 11:30:22;;;;;;;8.88;6.08;;;;;;;28.96;39.98;99708.87;1733819;82;25435;-61
2022/10/27 11:33:15;;;;;;;6.97;4.50;;;;;;;29.38;39.99;99702.65;1734146;82;27536;-61
2022/10/27 11:36:05;;;;;;;7.75;5.28;;;;;;;29.82;39.22;99693.77;1733991;82;25434;-61
2022/10/27 11:39:02;;;;;;;7.75;5.50;;;;;;;29.59;39.40;99697.24;1734292;82;25581;-61
2022/10/27 11:41:59;;;;;;;7.65;5.60;;;;;;;29.95;39.19;99701.06;1733332;82;25835;-60